sensor_id;sensor_type;location;lat;lon;timestamp;P1;durP1;ratioP1;P2;durP2;ratioP2
56307;SDS011;42217;50.422;7.210;2022-08-18T00:02:26;11.95;;;9.05;;
56307;SDS011;42217;50.422;7.210;2022-08-18T00:04:43;10.30;;;9.25;;
56307;SDS011;42217;50.422;7.210;2022-08-18T00:07:11;12.20;;;9.25;;
56307;SDS011;42217;50.422;7.210;2022-08-18T00:09:39;14.13;;;9.50;;
56307;SDS011;42217;50.422;7.210;2022-08-18T00:12:12;12.32;;;9.90;;
56307;SDS011;42217;50.422;7.210;2022-08-18T00:14:41;10.88;;;9.20;;
56307;SDS011;42217;50.422;7.210;2022-08-18T00:17:07;9.13;;;8.20;;
56307;SDS011;42217;50.422;7.210;2022-08-18T00:19:33;11.38;;;7.80;;
56307;SDS011;42217;50.422;7.210;2022-08-18T00:21:59;10.30;;;8.27;;
56307;SDS011;42217;50.422;7.210;2022-08-18T00:24:25;8.43;;;7.63;;
56307;SDS011;42217;50.422;7.210;2022-08-18T00:26:50;8.43;;;7.50;;
56307;SDS011;42217;50.422;7.210;2022-08-18T00:29:16;9.60;;;8.68;;
56307;SDS011;42217;50.422;7.210;2022-08-18T00:31:42;9.70;;;8.57;;
56307;SDS011;42217;50.422;7.210;2022-08-18T00:34:08;11.18;;;9.18;;
56307;SDS011;42217;50.422;7.210;2022-08-18T00:36:34;9.60;;;8.38;;
56307;SDS011;42217;50.422;7.210;2022-08-18T00:39:00;11.32;;;10.10;;
56307;SDS011;42217;50.422;7.210;2022-08-18T00:41:26;11.50;;;9.38;;
56307;SDS011;42217;50.422;7.210;2022-08-18T00:43:53;11.60;;;10.35;;
56307;SDS011;42217;50.422;7.210;2022-08-18T00:46:32;10.68;;;9.43;;
56307;SDS011;42217;50.422;7.210;2022-08-18T00:49:00;12.88;;;9.77;;
56307;SDS011;42217;50.422;7.210;2022-08-18T00:56:34;16.65;;;12.77;;
56307;SDS011;42217;50.422;7.210;2022-08-18T01:01:50;20.65;;;14.93;;
56307;SDS011;42217;50.422;7.210;2022-08-18T01:04:22;14.35;;;11.25;;
56307;SDS011;42217;50.422;7.210;2022-08-18T01:06:54;16.33;;;10.55;;
56307;SDS011;42217;50.422;7.210;2022-08-18T01:09:22;14.48;;;9.40;;
56307;SDS011;42217;50.422;7.210;2022-08-18T01:11:48;10.80;;;8.65;;
56307;SDS011;42217;50.422;7.210;2022-08-18T01:14:15;9.75;;;7.97;;
56307;SDS011;42217;50.422;7.210;2022-08-18T01:16:42;10.23;;;8.75;;
56307;SDS011;42217;50.422;7.210;2022-08-18T01:19:30;11.20;;;10.02;;
56307;SDS011;42217;50.422;7.210;2022-08-18T01:23:16;14.73;;;10.90;;
56307;SDS011;42217;50.422;7.210;2022-08-18T01:25:17;14.38;;;12.02;;
56307;SDS011;42217;50.422;7.210;2022-08-18T01:28:04;13.13;;;11.73;;
56307;SDS011;42217;50.422;7.210;2022-08-18T01:30:31;13.10;;;11.15;;
56307;SDS011;42217;50.422;7.210;2022-08-18T01:33:08;16.15;;;11.43;;
56307;SDS011;42217;50.422;7.210;2022-08-18T01:35:36;13.48;;;11.40;;
56307;SDS011;42217;50.422;7.210;2022-08-18T01:38:04;11.82;;;10.55;;
56307;SDS011;42217;50.422;7.210;2022-08-18T01:40:30;12.43;;;11.15;;
56307;SDS011;42217;50.422;7.210;2022-08-18T01:42:56;13.05;;;10.57;;
56307;SDS011;42217;50.422;7.210;2022-08-18T01:45:22;13.95;;;11.85;;
56307;SDS011;42217;50.422;7.210;2022-08-18T01:47:48;17.88;;;13.15;;
56307;SDS011;42217;50.422;7.210;2022-08-18T01:50:15;15.38;;;11.93;;
56307;SDS011;42217;50.422;7.210;2022-08-18T01:52:41;15.48;;;12.07;;
56307;SDS011;42217;50.422;7.210;2022-08-18T01:55:07;17.10;;;11.32;;
56307;SDS011;42217;50.422;7.210;2022-08-18T01:57:35;16.23;;;10.98;;
56307;SDS011;42217;50.422;7.210;2022-08-18T02:00:07;12.32;;;11.02;;
56307;SDS011;42217;50.422;7.210;2022-08-18T02:02:34;13.20;;;11.35;;
56307;SDS011;42217;50.422;7.210;2022-08-18T02:05:02;17.38;;;12.02;;
56307;SDS011;42217;50.422;7.210;2022-08-18T02:07:32;12.07;;;10.55;;
56307;SDS011;42217;50.422;7.210;2022-08-18T02:09:59;11.93;;;10.27;;
56307;SDS011;42217;50.422;7.210;2022-08-18T02:12:26;13.02;;;11.65;;
56307;SDS011;42217;50.422;7.210;2022-08-18T02:14:51;14.00;;;11.73;;
56307;SDS011;42217;50.422;7.210;2022-08-18T02:17:17;13.20;;;10.88;;
56307;SDS011;42217;50.422;7.210;2022-08-18T02:19:44;15.18;;;12.65;;
56307;SDS011;42217;50.422;7.210;2022-08-18T02:22:12;18.42;;;14.25;;
56307;SDS011;42217;50.422;7.210;2022-08-18T02:24:40;16.17;;;12.93;;
56307;SDS011;42217;50.422;7.210;2022-08-18T02:27:06;15.15;;;13.52;;
56307;SDS011;42217;50.422;7.210;2022-08-18T02:29:33;16.45;;;13.10;;
56307;SDS011;42217;50.422;7.210;2022-08-18T02:31:59;16.85;;;14.88;;
56307;SDS011;42217;50.422;7.210;2022-08-18T02:34:25;21.67;;;12.85;;
56307;SDS011;42217;50.422;7.210;2022-08-18T02:36:51;15.30;;;13.55;;
56307;SDS011;42217;50.422;7.210;2022-08-18T02:39:17;22.33;;;17.10;;
56307;SDS011;42217;50.422;7.210;2022-08-18T02:41:42;17.20;;;15.40;;
56307;SDS011;42217;50.422;7.210;2022-08-18T02:44:08;21.05;;;17.05;;
56307;SDS011;42217;50.422;7.210;2022-08-18T02:46:35;22.63;;;17.70;;
56307;SDS011;42217;50.422;7.210;2022-08-18T02:49:02;22.08;;;17.90;;
56307;SDS011;42217;50.422;7.210;2022-08-18T02:51:29;18.60;;;15.48;;
56307;SDS011;42217;50.422;7.210;2022-08-18T02:53:55;17.27;;;15.18;;
56307;SDS011;42217;50.422;7.210;2022-08-18T02:56:24;21.23;;;15.60;;
56307;SDS011;42217;50.422;7.210;2022-08-18T02:58:53;19.95;;;16.23;;
56307;SDS011;42217;50.422;7.210;2022-08-18T03:01:23;20.60;;;16.77;;
56307;SDS011;42217;50.422;7.210;2022-08-18T03:03:51;22.60;;;16.95;;
56307;SDS011;42217;50.422;7.210;2022-08-18T03:06:18;23.20;;;17.10;;
56307;SDS011;42217;50.422;7.210;2022-08-18T03:08:45;21.85;;;16.95;;
56307;SDS011;42217;50.422;7.210;2022-08-18T03:11:18;21.15;;;17.15;;
56307;SDS011;42217;50.422;7.210;2022-08-18T03:13:46;23.73;;;18.75;;
56307;SDS011;42217;50.422;7.210;2022-08-18T03:16:12;24.65;;;18.05;;
56307;SDS011;42217;50.422;7.210;2022-08-18T03:18:40;21.90;;;18.33;;
56307;SDS011;42217;50.422;7.210;2022-08-18T03:21:07;26.60;;;19.00;;
56307;SDS011;42217;50.422;7.210;2022-08-18T03:23:34;21.45;;;18.50;;
56307;SDS011;42217;50.422;7.210;2022-08-18T03:26:00;23.08;;;19.00;;
56307;SDS011;42217;50.422;7.210;2022-08-18T03:28:26;32.78;;;19.20;;
56307;SDS011;42217;50.422;7.210;2022-08-18T03:30:52;23.88;;;19.35;;
56307;SDS011;42217;50.422;7.210;2022-08-18T03:33:18;26.10;;;18.83;;
56307;SDS011;42217;50.422;7.210;2022-08-18T03:35:44;26.02;;;20.13;;
56307;SDS011;42217;50.422;7.210;2022-08-18T03:38:10;21.48;;;18.65;;
56307;SDS011;42217;50.422;7.210;2022-08-18T03:40:36;22.63;;;17.77;;
56307;SDS011;42217;50.422;7.210;2022-08-18T03:43:03;23.33;;;18.60;;
56307;SDS011;42217;50.422;7.210;2022-08-18T03:45:31;23.92;;;18.15;;
56307;SDS011;42217;50.422;7.210;2022-08-18T03:47:58;27.40;;;21.15;;
56307;SDS011;42217;50.422;7.210;2022-08-18T03:50:25;25.63;;;19.42;;
56307;SDS011;42217;50.422;7.210;2022-08-18T03:52:51;28.50;;;21.02;;
56307;SDS011;42217;50.422;7.210;2022-08-18T03:55:18;26.15;;;20.23;;
56307;SDS011;42217;50.422;7.210;2022-08-18T03:57:43;24.92;;;19.63;;
56307;SDS011;42217;50.422;7.210;2022-08-18T04:00:10;28.55;;;20.23;;
56307;SDS011;42217;50.422;7.210;2022-08-18T04:02:37;27.08;;;21.42;;
56307;SDS011;42217;50.422;7.210;2022-08-18T04:05:04;22.40;;;17.58;;
56307;SDS011;42217;50.422;7.210;2022-08-18T04:07:30;26.13;;;18.20;;
56307;SDS011;42217;50.422;7.210;2022-08-18T04:09:56;30.27;;;20.13;;
56307;SDS011;42217;50.422;7.210;2022-08-18T04:12:22;28.48;;;20.60;;
56307;SDS011;42217;50.422;7.210;2022-08-18T04:14:48;27.40;;;21.63;;
56307;SDS011;42217;50.422;7.210;2022-08-18T04:17:15;27.98;;;22.73;;
56307;SDS011;42217;50.422;7.210;2022-08-18T04:19:48;27.83;;;21.13;;
56307;SDS011;42217;50.422;7.210;2022-08-18T04:22:18;33.53;;;24.92;;
56307;SDS011;42217;50.422;7.210;2022-08-18T04:24:44;33.10;;;23.20;;
56307;SDS011;42217;50.422;7.210;2022-08-18T04:27:11;31.02;;;24.17;;
56307;SDS011;42217;50.422;7.210;2022-08-18T04:29:36;34.08;;;23.38;;
56307;SDS011;42217;50.422;7.210;2022-08-18T04:32:02;33.63;;;24.63;;
56307;SDS011;42217;50.422;7.210;2022-08-18T04:34:29;30.65;;;24.42;;
56307;SDS011;42217;50.422;7.210;2022-08-18T04:36:56;28.92;;;22.63;;
56307;SDS011;42217;50.422;7.210;2022-08-18T04:39:22;27.55;;;21.85;;
56307;SDS011;42217;50.422;7.210;2022-08-18T04:41:48;25.02;;;20.88;;
56307;SDS011;42217;50.422;7.210;2022-08-18T04:44:14;27.77;;;21.52;;
56307;SDS011;42217;50.422;7.210;2022-08-18T04:46:46;32.90;;;23.25;;
56307;SDS011;42217;50.422;7.210;2022-08-18T04:49:17;30.25;;;23.75;;
56307;SDS011;42217;50.422;7.210;2022-08-18T04:51:45;33.38;;;26.08;;
56307;SDS011;42217;50.422;7.210;2022-08-18T04:54:33;31.63;;;24.77;;
56307;SDS011;42217;50.422;7.210;2022-08-18T04:57:08;24.63;;;20.92;;
56307;SDS011;42217;50.422;7.210;2022-08-18T04:59:36;26.65;;;21.33;;
56307;SDS011;42217;50.422;7.210;2022-08-18T05:02:04;25.67;;;21.83;;
56307;SDS011;42217;50.422;7.210;2022-08-18T05:04:31;27.88;;;22.67;;
56307;SDS011;42217;50.422;7.210;2022-08-18T05:06:58;29.25;;;20.95;;
56307;SDS011;42217;50.422;7.210;2022-08-18T05:09:25;32.95;;;25.02;;
56307;SDS011;42217;50.422;7.210;2022-08-18T05:11:50;31.48;;;23.67;;
56307;SDS011;42217;50.422;7.210;2022-08-18T05:14:17;31.20;;;22.80;;
56307;SDS011;42217;50.422;7.210;2022-08-18T05:16:42;31.40;;;26.70;;
56307;SDS011;42217;50.422;7.210;2022-08-18T05:19:09;30.55;;;24.92;;
56307;SDS011;42217;50.422;7.210;2022-08-18T05:21:36;29.40;;;23.90;;
56307;SDS011;42217;50.422;7.210;2022-08-18T05:24:03;26.90;;;22.88;;
56307;SDS011;42217;50.422;7.210;2022-08-18T05:26:29;29.75;;;23.40;;
56307;SDS011;42217;50.422;7.210;2022-08-18T05:28:55;28.23;;;22.25;;
56307;SDS011;42217;50.422;7.210;2022-08-18T05:31:22;27.85;;;20.95;;
56307;SDS011;42217;50.422;7.210;2022-08-18T05:33:50;26.77;;;21.17;;
56307;SDS011;42217;50.422;7.210;2022-08-18T05:36:20;30.95;;;21.35;;
56307;SDS011;42217;50.422;7.210;2022-08-18T05:41:33;29.98;;;24.00;;
56307;SDS011;42217;50.422;7.210;2022-08-18T05:44:05;30.85;;;24.90;;
56307;SDS011;42217;50.422;7.210;2022-08-18T05:49:04;38.03;;;26.85;;
56307;SDS011;42217;50.422;7.210;2022-08-18T05:51:32;31.52;;;25.02;;
56307;SDS011;42217;50.422;7.210;2022-08-18T05:54:03;32.00;;;23.65;;
56307;SDS011;42217;50.422;7.210;2022-08-18T05:56:49;26.35;;;22.08;;
56307;SDS011;42217;50.422;7.210;2022-08-18T05:59:26;26.80;;;21.90;;
56307;SDS011;42217;50.422;7.210;2022-08-18T06:01:59;25.05;;;20.85;;
56307;SDS011;42217;50.422;7.210;2022-08-18T06:04:38;28.33;;;20.95;;
56307;SDS011;42217;50.422;7.210;2022-08-18T06:07:12;25.55;;;20.92;;
56307;SDS011;42217;50.422;7.210;2022-08-18T06:09:51;28.23;;;20.75;;
56307;SDS011;42217;50.422;7.210;2022-08-18T06:15:22;27.02;;;21.63;;
56307;SDS011;42217;50.422;7.210;2022-08-18T06:23:56;34.05;;;25.50;;
56307;SDS011;42217;50.422;7.210;2022-08-18T06:40:32;35.70;;;27.13;;
56307;SDS011;42217;50.422;7.210;2022-08-18T06:42:57;33.38;;;25.70;;
56307;SDS011;42217;50.422;7.210;2022-08-18T06:45:25;29.30;;;25.23;;
56307;SDS011;42217;50.422;7.210;2022-08-18T06:53:20;35.80;;;24.58;;
56307;SDS011;42217;50.422;7.210;2022-08-18T06:55:46;34.80;;;24.02;;
56307;SDS011;42217;50.422;7.210;2022-08-18T07:01:13;37.50;;;25.98;;
56307;SDS011;42217;50.422;7.210;2022-08-18T07:08:30;29.70;;;23.42;;
56307;SDS011;42217;50.422;7.210;2022-08-18T07:11:10;32.00;;;24.13;;
56307;SDS011;42217;50.422;7.210;2022-08-18T07:13:57;33.90;;;23.50;;
56307;SDS011;42217;50.422;7.210;2022-08-18T07:16:45;31.25;;;23.40;;
56307;SDS011;42217;50.422;7.210;2022-08-18T07:19:12;28.48;;;23.58;;
56307;SDS011;42217;50.422;7.210;2022-08-18T07:21:40;31.02;;;23.92;;
56307;SDS011;42217;50.422;7.210;2022-08-18T07:24:41;34.88;;;24.75;;
56307;SDS011;42217;50.422;7.210;2022-08-18T07:27:11;29.70;;;23.60;;
56307;SDS011;42217;50.422;7.210;2022-08-18T07:30:07;38.22;;;28.70;;
56307;SDS011;42217;50.422;7.210;2022-08-18T07:32:43;36.65;;;27.33;;
56307;SDS011;42217;50.422;7.210;2022-08-18T07:35:15;35.15;;;26.38;;
56307;SDS011;42217;50.422;7.210;2022-08-18T07:40:31;44.55;;;26.65;;
56307;SDS011;42217;50.422;7.210;2022-08-18T07:43:13;35.80;;;25.70;;
56307;SDS011;42217;50.422;7.210;2022-08-18T07:45:45;39.28;;;27.15;;
56307;SDS011;42217;50.422;7.210;2022-08-18T08:05:12;35.60;;;28.02;;
56307;SDS011;42217;50.422;7.210;2022-08-18T08:08:07;37.65;;;29.90;;
56307;SDS011;42217;50.422;7.210;2022-08-18T08:16:19;41.97;;;29.45;;
56307;SDS011;42217;50.422;7.210;2022-08-18T08:18:56;48.63;;;31.00;;
56307;SDS011;42217;50.422;7.210;2022-08-18T08:21:43;43.08;;;30.42;;
56307;SDS011;42217;50.422;7.210;2022-08-18T08:24:19;44.95;;;30.73;;
56307;SDS011;42217;50.422;7.210;2022-08-18T08:27:17;44.88;;;31.88;;
56307;SDS011;42217;50.422;7.210;2022-08-18T08:32:36;44.22;;;29.13;;
56307;SDS011;42217;50.422;7.210;2022-08-18T08:35:18;40.47;;;29.83;;
56307;SDS011;42217;50.422;7.210;2022-08-18T08:38:01;47.65;;;30.90;;
56307;SDS011;42217;50.422;7.210;2022-08-18T08:40:37;41.85;;;29.67;;
56307;SDS011;42217;50.422;7.210;2022-08-18T08:43:09;44.42;;;30.02;;
56307;SDS011;42217;50.422;7.210;2022-08-18T08:48:38;43.33;;;28.48;;
56307;SDS011;42217;50.422;7.210;2022-08-18T08:56:48;38.58;;;27.33;;
56307;SDS011;42217;50.422;7.210;2022-08-18T08:59:17;47.03;;;29.27;;
56307;SDS011;42217;50.422;7.210;2022-08-18T09:38:54;58.58;;;32.88;;
56307;SDS011;42217;50.422;7.210;2022-08-18T09:41:45;49.78;;;28.23;;
56307;SDS011;42217;50.422;7.210;2022-08-18T09:44:14;48.33;;;27.52;;
56307;SDS011;42217;50.422;7.210;2022-08-18T09:54:52;37.35;;;24.95;;
56307;SDS011;42217;50.422;7.210;2022-08-18T09:57:23;38.17;;;24.88;;
56307;SDS011;42217;50.422;7.210;2022-08-18T09:59:55;39.65;;;23.33;;
56307;SDS011;42217;50.422;7.210;2022-08-18T10:10:25;42.47;;;24.85;;
56307;SDS011;42217;50.422;7.210;2022-08-18T10:15:40;47.53;;;24.80;;
56307;SDS011;42217;50.422;7.210;2022-08-18T10:24:22;43.40;;;24.83;;
56307;SDS011;42217;50.422;7.210;2022-08-18T10:27:08;42.10;;;25.67;;
56307;SDS011;42217;50.422;7.210;2022-08-18T10:29:42;44.70;;;25.92;;
56307;SDS011;42217;50.422;7.210;2022-08-18T10:34:40;51.60;;;27.63;;
56307;SDS011;42217;50.422;7.210;2022-08-18T10:40:29;44.30;;;25.70;;
56307;SDS011;42217;50.422;7.210;2022-08-18T10:45:45;46.60;;;26.15;;
56307;SDS011;42217;50.422;7.210;2022-08-18T10:56:28;65.68;;;29.63;;
56307;SDS011;42217;50.422;7.210;2022-08-18T11:01:54;46.65;;;26.83;;
56307;SDS011;42217;50.422;7.210;2022-08-18T11:04:43;47.83;;;26.15;;
56307;SDS011;42217;50.422;7.210;2022-08-18T11:07:19;53.00;;;29.80;;
56307;SDS011;42217;50.422;7.210;2022-08-18T11:09:48;44.05;;;28.67;;
56307;SDS011;42217;50.422;7.210;2022-08-18T11:15:27;49.17;;;28.63;;
56307;SDS011;42217;50.422;7.210;2022-08-18T11:18:23;48.92;;;28.77;;
56307;SDS011;42217;50.422;7.210;2022-08-18T11:24:05;49.95;;;29.73;;
56307;SDS011;42217;50.422;7.210;2022-08-18T11:26:31;43.47;;;28.15;;
56307;SDS011;42217;50.422;7.210;2022-08-18T11:28:59;48.65;;;29.08;;
56307;SDS011;42217;50.422;7.210;2022-08-18T11:31:38;50.72;;;29.45;;
56307;SDS011;42217;50.422;7.210;2022-08-18T11:34:04;48.75;;;29.80;;
56307;SDS011;42217;50.422;7.210;2022-08-18T11:36:35;47.65;;;29.92;;
56307;SDS011;42217;50.422;7.210;2022-08-18T11:39:01;47.97;;;28.45;;
56307;SDS011;42217;50.422;7.210;2022-08-18T11:41:27;56.08;;;27.58;;
56307;SDS011;42217;50.422;7.210;2022-08-18T11:43:56;56.40;;;30.67;;
56307;SDS011;42217;50.422;7.210;2022-08-18T11:46:37;50.22;;;29.85;;
56307;SDS011;42217;50.422;7.210;2022-08-18T11:49:17;51.42;;;29.30;;
56307;SDS011;42217;50.422;7.210;2022-08-18T11:51:54;55.92;;;31.67;;
56307;SDS011;42217;50.422;7.210;2022-08-18T11:54:32;49.67;;;28.75;;
56307;SDS011;42217;50.422;7.210;2022-08-18T12:03:02;49.45;;;28.45;;
56307;SDS011;42217;50.422;7.210;2022-08-18T12:05:49;56.13;;;31.08;;
56307;SDS011;42217;50.422;7.210;2022-08-18T12:11:05;49.45;;;28.63;;
56307;SDS011;42217;50.422;7.210;2022-08-18T12:19:03;43.00;;;26.30;;
56307;SDS011;42217;50.422;7.210;2022-08-18T12:21:31;41.10;;;26.20;;
56307;SDS011;42217;50.422;7.210;2022-08-18T12:24:00;42.22;;;26.00;;
56307;SDS011;42217;50.422;7.210;2022-08-18T12:26:27;39.67;;;25.33;;
56307;SDS011;42217;50.422;7.210;2022-08-18T12:28:53;38.88;;;26.45;;
56307;SDS011;42217;50.422;7.210;2022-08-18T12:31:19;40.67;;;26.63;;
56307;SDS011;42217;50.422;7.210;2022-08-18T12:33:44;39.88;;;25.48;;
56307;SDS011;42217;50.422;7.210;2022-08-18T12:36:10;40.42;;;27.02;;
56307;SDS011;42217;50.422;7.210;2022-08-18T12:38:36;42.10;;;25.70;;
56307;SDS011;42217;50.422;7.210;2022-08-18T12:41:02;37.90;;;26.85;;
56307;SDS011;42217;50.422;7.210;2022-08-18T12:43:29;42.55;;;27.88;;
56307;SDS011;42217;50.422;7.210;2022-08-18T12:45:56;36.28;;;26.55;;
56307;SDS011;42217;50.422;7.210;2022-08-18T12:48:23;39.17;;;27.08;;
56307;SDS011;42217;50.422;7.210;2022-08-18T12:50:50;34.20;;;25.20;;
56307;SDS011;42217;50.422;7.210;2022-08-18T12:53:16;35.15;;;25.38;;
56307;SDS011;42217;50.422;7.210;2022-08-18T12:55:42;31.65;;;24.02;;
56307;SDS011;42217;50.422;7.210;2022-08-18T12:58:08;34.38;;;26.08;;
56307;SDS011;42217;50.422;7.210;2022-08-18T13:00:34;38.10;;;27.73;;
56307;SDS011;42217;50.422;7.210;2022-08-18T13:03:00;33.50;;;26.15;;
56307;SDS011;42217;50.422;7.210;2022-08-18T13:05:26;33.55;;;25.85;;
56307;SDS011;42217;50.422;7.210;2022-08-18T13:07:53;36.90;;;28.30;;
56307;SDS011;42217;50.422;7.210;2022-08-18T13:10:22;42.28;;;28.90;;
56307;SDS011;42217;50.422;7.210;2022-08-18T13:12:48;37.15;;;27.77;;
56307;SDS011;42217;50.422;7.210;2022-08-18T13:15:13;33.40;;;27.48;;
56307;SDS011;42217;50.422;7.210;2022-08-18T13:17:39;35.00;;;26.45;;
56307;SDS011;42217;50.422;7.210;2022-08-18T13:20:07;33.60;;;25.75;;
56307;SDS011;42217;50.422;7.210;2022-08-18T13:22:37;36.13;;;28.27;;
56307;SDS011;42217;50.422;7.210;2022-08-18T13:25:08;36.67;;;26.45;;
56307;SDS011;42217;50.422;7.210;2022-08-18T13:27:38;34.17;;;26.27;;
56307;SDS011;42217;50.422;7.210;2022-08-18T13:30:08;33.67;;;24.88;;
56307;SDS011;42217;50.422;7.210;2022-08-18T13:32:36;28.98;;;23.83;;
56307;SDS011;42217;50.422;7.210;2022-08-18T13:35:02;31.80;;;23.88;;
56307;SDS011;42217;50.422;7.210;2022-08-18T13:37:28;28.77;;;24.08;;
56307;SDS011;42217;50.422;7.210;2022-08-18T13:39:56;32.35;;;22.20;;
56307;SDS011;42217;50.422;7.210;2022-08-18T13:42:23;27.80;;;21.83;;
56307;SDS011;42217;50.422;7.210;2022-08-18T13:44:49;30.13;;;22.63;;
56307;SDS011;42217;50.422;7.210;2022-08-18T13:47:15;26.40;;;20.10;;
56307;SDS011;42217;50.422;7.210;2022-08-18T13:49:41;24.67;;;20.20;;
56307;SDS011;42217;50.422;7.210;2022-08-18T13:52:07;26.83;;;21.45;;
56307;SDS011;42217;50.422;7.210;2022-08-18T13:54:36;28.60;;;20.73;;
56307;SDS011;42217;50.422;7.210;2022-08-18T13:57:02;28.00;;;20.67;;
56307;SDS011;42217;50.422;7.210;2022-08-18T13:59:28;33.88;;;20.17;;
56307;SDS011;42217;50.422;7.210;2022-08-18T14:01:57;27.58;;;21.48;;
56307;SDS011;42217;50.422;7.210;2022-08-18T14:04:24;24.25;;;19.35;;
56307;SDS011;42217;50.422;7.210;2022-08-18T14:06:51;30.50;;;19.20;;
56307;SDS011;42217;50.422;7.210;2022-08-18T14:09:18;31.95;;;20.92;;
56307;SDS011;42217;50.422;7.210;2022-08-18T14:11:44;27.55;;;21.00;;
56307;SDS011;42217;50.422;7.210;2022-08-18T14:14:11;26.98;;;20.17;;
56307;SDS011;42217;50.422;7.210;2022-08-18T14:16:38;32.38;;;22.70;;
56307;SDS011;42217;50.422;7.210;2022-08-18T14:19:04;35.92;;;22.00;;
56307;SDS011;42217;50.422;7.210;2022-08-18T14:21:49;29.33;;;21.90;;
56307;SDS011;42217;50.422;7.210;2022-08-18T14:24:36;27.08;;;19.85;;
56307;SDS011;42217;50.422;7.210;2022-08-18T14:27:26;26.15;;;20.35;;
56307;SDS011;42217;50.422;7.210;2022-08-18T14:29:58;29.20;;;18.65;;
56307;SDS011;42217;50.422;7.210;2022-08-18T14:32:25;27.90;;;22.55;;
56307;SDS011;42217;50.422;7.210;2022-08-18T14:34:54;26.77;;;21.70;;
56307;SDS011;42217;50.422;7.210;2022-08-18T14:37:24;28.00;;;21.42;;
56307;SDS011;42217;50.422;7.210;2022-08-18T14:39:51;27.52;;;21.00;;
56307;SDS011;42217;50.422;7.210;2022-08-18T14:42:17;25.60;;;21.10;;
56307;SDS011;42217;50.422;7.210;2022-08-18T14:44:45;31.83;;;22.48;;
56307;SDS011;42217;50.422;7.210;2022-08-18T14:47:12;27.50;;;20.67;;
56307;SDS011;42217;50.422;7.210;2022-08-18T14:49:38;25.50;;;20.58;;
56307;SDS011;42217;50.422;7.210;2022-08-18T14:52:04;26.52;;;20.00;;
56307;SDS011;42217;50.422;7.210;2022-08-18T14:54:31;27.42;;;19.90;;
56307;SDS011;42217;50.422;7.210;2022-08-18T14:56:58;29.02;;;21.65;;
56307;SDS011;42217;50.422;7.210;2022-08-18T14:59:26;30.52;;;20.63;;
56307;SDS011;42217;50.422;7.210;2022-08-18T15:01:55;30.60;;;23.30;;
56307;SDS011;42217;50.422;7.210;2022-08-18T15:04:22;27.02;;;20.60;;
56307;SDS011;42217;50.422;7.210;2022-08-18T15:06:49;32.35;;;22.10;;
56307;SDS011;42217;50.422;7.210;2022-08-18T15:09:14;31.63;;;22.27;;
56307;SDS011;42217;50.422;7.210;2022-08-18T15:11:40;27.00;;;21.88;;
56307;SDS011;42217;50.422;7.210;2022-08-18T15:14:06;35.33;;;23.73;;
56307;SDS011;42217;50.422;7.210;2022-08-18T15:16:32;35.20;;;22.83;;
56307;SDS011;42217;50.422;7.210;2022-08-18T15:18:59;28.80;;;21.40;;
56307;SDS011;42217;50.422;7.210;2022-08-18T15:21:26;36.20;;;20.92;;
56307;SDS011;42217;50.422;7.210;2022-08-18T15:24:12;34.05;;;24.33;;
56307;SDS011;42217;50.422;7.210;2022-08-18T15:26:56;35.38;;;24.25;;
56307;SDS011;42217;50.422;7.210;2022-08-18T15:29:23;32.17;;;23.58;;
56307;SDS011;42217;50.422;7.210;2022-08-18T15:31:50;28.42;;;22.42;;
56307;SDS011;42217;50.422;7.210;2022-08-18T15:34:16;37.80;;;23.40;;
56307;SDS011;42217;50.422;7.210;2022-08-18T15:36:42;27.90;;;22.88;;
56307;SDS011;42217;50.422;7.210;2022-08-18T15:39:08;33.42;;;23.50;;
56307;SDS011;42217;50.422;7.210;2022-08-18T15:41:39;31.98;;;23.60;;
56307;SDS011;42217;50.422;7.210;2022-08-18T15:44:07;32.85;;;22.90;;
56307;SDS011;42217;50.422;7.210;2022-08-18T15:46:34;29.92;;;22.20;;
56307;SDS011;42217;50.422;7.210;2022-08-18T15:49:02;30.80;;;22.40;;
56307;SDS011;42217;50.422;7.210;2022-08-18T15:51:36;31.38;;;22.30;;
56307;SDS011;42217;50.422;7.210;2022-08-18T15:54:03;28.60;;;22.58;;
56307;SDS011;42217;50.422;7.210;2022-08-18T15:56:30;26.02;;;21.48;;
56307;SDS011;42217;50.422;7.210;2022-08-18T15:58:56;34.55;;;22.33;;
56307;SDS011;42217;50.422;7.210;2022-08-18T16:01:23;25.58;;;21.35;;
56307;SDS011;42217;50.422;7.210;2022-08-18T16:03:50;30.50;;;23.23;;
56307;SDS011;42217;50.422;7.210;2022-08-18T16:06:21;27.52;;;23.48;;
56307;SDS011;42217;50.422;7.210;2022-08-18T16:08:50;32.42;;;23.30;;
56307;SDS011;42217;50.422;7.210;2022-08-18T16:11:16;30.63;;;21.85;;
56307;SDS011;42217;50.422;7.210;2022-08-18T16:13:43;23.70;;;20.70;;
56307;SDS011;42217;50.422;7.210;2022-08-18T16:16:11;23.50;;;20.85;;
56307;SDS011;42217;50.422;7.210;2022-08-18T16:18:39;28.23;;;20.88;;
56307;SDS011;42217;50.422;7.210;2022-08-18T16:21:07;24.67;;;19.85;;
56307;SDS011;42217;50.422;7.210;2022-08-18T16:23:36;29.25;;;20.70;;
56307;SDS011;42217;50.422;7.210;2022-08-18T16:26:03;22.73;;;19.83;;
56307;SDS011;42217;50.422;7.210;2022-08-18T16:28:29;24.88;;;19.63;;
56307;SDS011;42217;50.422;7.210;2022-08-18T16:30:55;23.55;;;19.90;;
56307;SDS011;42217;50.422;7.210;2022-08-18T16:33:22;23.92;;;19.15;;
56307;SDS011;42217;50.422;7.210;2022-08-18T16:35:48;22.35;;;17.98;;
56307;SDS011;42217;50.422;7.210;2022-08-18T16:38:15;23.55;;;20.42;;
56307;SDS011;42217;50.422;7.210;2022-08-18T16:40:42;23.58;;;19.73;;
56307;SDS011;42217;50.422;7.210;2022-08-18T16:43:08;24.45;;;21.15;;
56307;SDS011;42217;50.422;7.210;2022-08-18T16:45:38;19.75;;;17.70;;
56307;SDS011;42217;50.422;7.210;2022-08-18T16:50:33;23.70;;;20.10;;
56307;SDS011;42217;50.422;7.210;2022-08-18T16:53:00;29.25;;;20.20;;
56307;SDS011;42217;50.422;7.210;2022-08-18T16:55:26;25.83;;;20.40;;
56307;SDS011;42217;50.422;7.210;2022-08-18T16:57:52;23.67;;;18.85;;
56307;SDS011;42217;50.422;7.210;2022-08-18T17:00:36;19.52;;;17.05;;
56307;SDS011;42217;50.422;7.210;2022-08-18T17:03:24;18.20;;;16.33;;
56307;SDS011;42217;50.422;7.210;2022-08-18T17:06:10;18.65;;;16.08;;
56307;SDS011;42217;50.422;7.210;2022-08-18T17:08:38;19.15;;;14.70;;
56307;SDS011;42217;50.422;7.210;2022-08-18T17:11:05;17.02;;;15.23;;
56307;SDS011;42217;50.422;7.210;2022-08-18T17:13:34;16.42;;;14.73;;
56307;SDS011;42217;50.422;7.210;2022-08-18T17:16:00;18.63;;;14.60;;
56307;SDS011;42217;50.422;7.210;2022-08-18T17:18:26;17.60;;;15.55;;
56307;SDS011;42217;50.422;7.210;2022-08-18T17:20:53;18.30;;;15.38;;
56307;SDS011;42217;50.422;7.210;2022-08-18T17:23:19;18.30;;;15.40;;
56307;SDS011;42217;50.422;7.210;2022-08-18T17:25:44;15.93;;;14.23;;
56307;SDS011;42217;50.422;7.210;2022-08-18T17:28:14;16.50;;;13.82;;
56307;SDS011;42217;50.422;7.210;2022-08-18T17:30:47;15.18;;;12.93;;
56307;SDS011;42217;50.422;7.210;2022-08-18T17:33:18;14.65;;;13.07;;
56307;SDS011;42217;50.422;7.210;2022-08-18T17:35:48;13.73;;;12.07;;
56307;SDS011;42217;50.422;7.210;2022-08-18T17:40:52;12.80;;;11.60;;
56307;SDS011;42217;50.422;7.210;2022-08-18T17:43:21;12.85;;;11.60;;
56307;SDS011;42217;50.422;7.210;2022-08-18T17:45:57;17.35;;;10.93;;
56307;SDS011;42217;50.422;7.210;2022-08-18T17:49:24;12.55;;;10.60;;
56307;SDS011;42217;50.422;7.210;2022-08-18T17:51:33;11.95;;;9.90;;
56307;SDS011;42217;50.422;7.210;2022-08-18T17:56:44;11.40;;;10.18;;